Time;durP1;ratioP1;P1;durP2;ratioP2;P2;SDS_P1;SDS_P2;PMS_P1;PMS_P2;Temp;Humidity;BMP_temperature;BMP_pressure;BME280_temperature;BME280_humidity;BME280_pressure;Samples;Min_cycle;Max_cycle;Signal;HPM_P1;HPM_P2
2021/12/11 00:01:48;;;;;;;40.93;28.30;;;9.40;77.50;;;;;;5031533;28;20243;-74
2021/12/11 00:04:18;;;;;;;45.20;25.27;;;9.40;77.40;;;;;;5028882;28;20277;-74
2021/12/11 00:06:48;;;;;;;40.87;27.07;;;9.40;77.60;;;;;;5044127;28;20314;-74
2021/12/11 00:09:21;;;;;;;44.00;26.83;;;9.30;78.00;;;;;;5048867;28;20256;-77
2021/12/11 00:11:54;;;;;;;43.17;26.13;;;9.30;77.10;;;;;;5040861;28;20664;-74
2021/12/11 00:14:23;;;;;;;44.10;22.87;;;9.30;77.00;;;;;;5030919;28;20306;-75
2021/12/11 00:16:51;;;;;;;42.83;22.00;;;9.30;77.00;;;;;;5042408;28;20282;-74
2021/12/11 00:19:23;;;;;;;37.77;27.90;;;9.30;77.10;;;;;;5049073;28;20289;-74
2021/12/11 00:21:51;;;;;;;43.30;25.07;;;9.30;77.00;;;;;;5047594;28;20672;-74
2021/12/11 00:24:24;;;;;;;37.63;24.03;;;9.20;77.00;;;;;;5048876;28;20410;-73
2021/12/11 00:26:57;;;;;;;44.33;28.70;;;9.30;77.20;;;;;;5048275;28;20230;-73
2021/12/11 00:29:26;;;;;;;46.90;30.00;;;9.30;77.40;;;;;;5048520;28;20317;-74
2021/12/11 00:31:57;;;;;;;47.87;29.47;;;9.30;77.40;;;;;;5047786;28;20800;-73
2021/12/11 00:34:24;;;;;;;40.70;26.33;;;9.30;77.50;;;;;;5048931;28;20232;-74
2021/12/11 00:36:53;;;;;;;36.90;28.43;;;9.30;78.30;;;;;;5047947;28;20206;-74
2021/12/11 00:39:22;;;;;;;40.10;27.47;;;9.20;77.40;;;;;;5048185;28;20244;-76
2021/12/11 00:41:53;;;;;;;48.33;27.87;;;9.20;77.40;;;;;;5028706;28;20305;-73
2021/12/11 00:44:20;;;;;;;43.33;26.13;;;9.20;77.40;;;;;;5037083;28;20276;-73
2021/12/11 00:46:48;;;;;;;41.27;27.80;;;9.20;77.40;;;;;;5049040;28;20312;-74
2021/12/11 00:49:18;;;;;;;35.17;27.00;;;9.20;77.40;;;;;;5048101;28;20303;-75
2021/12/11 00:51:50;;;;;;;44.27;27.07;;;9.20;77.30;;;;;;5048421;28;20291;-74
2021/12/11 00:54:17;;;;;;;48.70;27.50;;;9.20;77.00;;;;;;5048119;28;20787;-77
2021/12/11 00:56:47;;;;;;;44.30;30.13;;;9.20;77.20;;;;;;5048578;28;20216;-73
2021/12/11 00:59:17;;;;;;;45.83;23.87;;;9.20;77.10;;;;;;5043734;28;20203;-73
2021/12/11 01:01:47;;;;;;;42.90;23.63;;;9.10;76.80;;;;;;5048168;28;20299;-75
2021/12/11 01:04:18;;;;;;;39.20;25.67;;;9.10;76.80;;;;;;5048509;28;20648;-78
2021/12/11 01:06:50;;;;;;;37.57;24.93;;;9.10;76.80;;;;;;5046831;28;20588;-73
2021/12/11 01:09:20;;;;;;;35.13;27.03;;;9.00;76.70;;;;;;5048201;28;20201;-77
2021/12/11 01:11:51;;;;;;;44.27;25.40;;;9.10;76.70;;;;;;5048072;28;20709;-75
2021/12/11 01:14:26;;;;;;;32.20;26.27;;;9.10;76.70;;;;;;5047949;28;20892;-74
2021/12/11 01:16:57;;;;;;;40.90;30.10;;;9.10;76.80;;;;;;5047746;28;20193;-74
2021/12/11 01:19:25;;;;;;;49.30;30.40;;;9.10;76.90;;;;;;5048236;28;20206;-76
2021/12/11 01:21:58;;;;;;;38.00;29.67;;;9.10;76.90;;;;;;5048273;28;20202;-74
2021/12/11 01:24:41;;;;;;;43.67;27.43;;;9.10;76.80;;;;;;5048023;28;20576;-74
2021/12/11 01:27:11;;;;;;;46.30;29.93;;;9.00;76.90;;;;;;5047594;28;20231;-74
2021/12/11 01:29:38;;;;;;;48.17;30.97;;;9.00;77.10;;;;;;5042126;28;20623;-74
2021/12/11 01:32:07;;;;;;;33.13;29.07;;;9.00;77.20;;;;;;5028489;28;20242;-74
2021/12/11 01:34:35;;;;;;;46.00;29.43;;;8.90;77.10;;;;;;5028669;28;20255;-76
2021/12/11 01:37:04;;;;;;;45.03;30.77;;;9.00;77.30;;;;;;5027754;28;20239;-74
2021/12/11 01:39:34;;;;;;;42.17;28.30;;;8.90;77.10;;;;;;5044047;28;20264;-76
2021/12/11 01:42:06;;;;;;;41.17;27.37;;;8.90;77.10;;;;;;5047684;28;20294;-77
2021/12/11 01:44:37;;;;;;;39.33;35.07;;;8.90;77.10;;;;;;5046974;28;20302;-73
2021/12/11 01:47:09;;;;;;;36.50;30.50;;;8.90;77.00;;;;;;5048330;28;20322;-78
2021/12/11 01:49:37;;;;;;;37.30;29.87;;;8.90;77.00;;;;;;5040635;28;20211;-74
2021/12/11 01:52:11;;;;;;;46.83;26.30;;;8.90;77.00;;;;;;5033772;28;20210;-74
2021/12/11 01:54:44;;;;;;;32.17;27.30;;;8.90;77.00;;;;;;5050372;28;20820;-74
2021/12/11 01:57:15;;;;;;;34.23;30.80;;;8.80;77.00;;;;;;5051999;28;20210;-73
2021/12/11 01:59:52;;;;;;;65.43;28.93;;;8.90;77.10;;;;;;5040010;28;20227;-74
2021/12/11 02:02:24;;;;;;;31.33;27.40;;;8.80;77.00;;;;;;5032202;28;20206;-77
2021/12/11 02:04:53;;;;;;;38.07;28.77;;;8.80;77.00;;;;;;5037606;28;20788;-73
2021/12/11 02:07:26;;;;;;;41.80;25.27;;;8.80;77.00;;;;;;5031704;28;20235;-73
2021/12/11 02:09:57;;;;;;;39.07;28.53;;;8.80;77.00;;;;;;5044442;28;20288;-73
2021/12/11 02:12:31;;;;;;;39.70;25.83;;;8.80;77.10;;;;;;5049814;28;20205;-73
2021/12/11 02:15:02;;;;;;;57.70;32.13;;;8.80;77.20;;;;;;5052489;28;20253;-73
2021/12/11 02:17:33;;;;;;;39.07;24.27;;;8.80;77.20;;;;;;5045454;28;20201;-73
2021/12/11 02:20:03;;;;;;;44.20;28.73;;;8.80;77.20;;;;;;5032318;28;20684;-74
2021/12/11 02:22:37;;;;;;;32.47;29.50;;;8.80;77.20;;;;;;5037349;28;20845;-74
2021/12/11 02:25:11;;;;;;;38.27;27.80;;;8.80;77.20;;;;;;5051136;28;20362;-74
2021/12/11 02:27:45;;;;;;;35.30;28.07;;;8.80;77.40;;;;;;5045009;28;20337;-73
2021/12/11 02:30:20;;;;;;;46.17;32.10;;;8.80;77.50;;;;;;5045510;28;20287;-74
2021/12/11 02:32:53;;;;;;;44.60;27.33;;;8.80;77.50;;;;;;5044218;28;20199;-74
2021/12/11 02:35:24;;;;;;;45.10;34.83;;;8.80;77.40;;;;;;5041666;28;20333;-75
2021/12/11 02:37:57;;;;;;;39.63;35.33;;;8.80;77.40;;;;;;5049107;28;20207;-73
2021/12/11 02:40:29;;;;;;;34.07;28.30;;;8.70;77.40;;;;;;5051126;28;20265;-75
2021/12/11 02:43:01;;;;;;;43.90;29.90;;;8.70;77.40;;;;;;5050706;28;20288;-74
2021/12/11 02:45:33;;;;;;;33.50;28.27;;;8.70;77.50;;;;;;5051244;28;20223;-73
2021/12/11 02:48:05;;;;;;;38.37;33.83;;;8.70;77.50;;;;;;5045412;28;20358;-75
2021/12/11 02:50:39;;;;;;;42.23;30.50;;;8.70;77.50;;;;;;5050664;28;20278;-73
2021/12/11 02:53:14;;;;;;;48.27;34.00;;;8.70;77.50;;;;;;5041999;28;20231;-73
2021/12/11 02:55:47;;;;;;;37.53;32.63;;;8.70;77.40;;;;;;5050747;28;20313;-73
2021/12/11 02:58:17;;;;;;;44.97;29.30;;;8.70;77.30;;;;;;5030807;28;20314;-76
2021/12/11 03:00:49;;;;;;;43.40;37.37;;;8.70;77.10;;;;;;5030011;28;20256;-74
2021/12/11 03:03:17;;;;;;;41.50;34.23;;;8.70;77.20;;;;;;5030556;28;20243;-73
2021/12/11 03:05:55;;;;;;;57.70;31.60;;;8.70;77.10;;;;;;5046478;28;20253;-73
2021/12/11 03:08:23;;;;;;;34.53;24.97;;;8.70;77.10;;;;;;5048907;28;20317;-74
2021/12/11 03:10:54;;;;;;;38.67;27.47;;;8.70;77.10;;;;;;5050335;28;20243;-74
2021/12/11 03:13:22;;;;;;;36.83;31.10;;;8.70;77.10;;;;;;5030517;28;20915;-74
2021/12/11 03:15:50;;;;;;;35.10;28.70;;;8.70;77.10;;;;;;5030840;28;20290;-73
2021/12/11 03:18:17;;;;;;;35.50;28.27;;;8.70;77.10;;;;;;5035644;28;20635;-74
2021/12/11 03:20:47;;;;;;;50.17;34.63;;;8.60;77.00;;;;;;5050303;28;20297;-78
2021/12/11 03:23:15;;;;;;;37.57;31.33;;;8.60;77.00;;;;;;5031514;28;20301;-74
2021/12/11 03:25:45;;;;;;;38.47;29.67;;;8.60;76.90;;;;;;5034055;28;20683;-73
2021/12/11 03:28:15;;;;;;;40.37;29.37;;;8.60;77.00;;;;;;5029553;28;20281;-74
2021/12/11 03:30:50;;;;;;;121.23;34.90;;;8.60;77.00;;;;;;5029089;28;20724;-72
2021/12/11 03:33:18;;;;;;;41.17;27.20;;;8.60;77.00;;;;;;5034965;28;20294;-74
2021/12/11 03:35:47;;;;;;;45.47;34.63;;;8.60;77.00;;;;;;5030669;28;20288;-75
2021/12/11 03:38:15;;;;;;;46.93;34.73;;;8.50;77.70;;;;;;5029767;28;20295;-74
2021/12/11 03:40:45;;;;;;;39.43;30.00;;;8.50;76.90;;;;;;5030633;28;20737;-73
2021/12/11 03:43:16;;;;;;;52.27;29.67;;;8.50;76.90;;;;;;5042488;28;20233;-74
2021/12/11 03:45:46;;;;;;;40.80;29.60;;;8.50;76.90;;;;;;5049490;28;20987;-75
2021/12/11 03:48:17;;;;;;;43.50;31.47;;;8.50;76.90;;;;;;5047741;28;20797;-73
2021/12/11 03:50:45;;;;;;;44.10;29.03;;;8.50;76.90;;;;;;5032810;28;20243;-74
2021/12/11 03:53:13;;;;;;;33.73;29.93;;;8.50;77.00;;;;;;5048838;28;20207;-74
2021/12/11 03:55:43;;;;;;;39.73;29.67;;;8.50;77.10;;;;;;5049749;28;20291;-74
2021/12/11 03:58:12;;;;;;;39.30;35.27;;;8.50;77.20;;;;;;5030661;28;20241;-73
2021/12/11 04:00:45;;;;;;;57.33;34.63;;;8.50;77.20;;;;;;5029553;28;20202;-74
2021/12/11 04:03:16;;;;;;;41.17;36.30;;;8.40;77.20;;;;;;5048126;28;20280;-74
2021/12/11 04:05:46;;;;;;;46.33;28.10;;;8.40;77.20;;;;;;5049670;28;20211;-74
2021/12/11 04:08:16;;;;;;;41.23;33.37;;;8.40;77.20;;;;;;5030681;28;20224;-74
2021/12/11 04:10:43;;;;;;;46.20;36.63;;;8.40;77.20;;;;;;5029021;28;20253;-78
2021/12/11 04:13:13;;;;;;;36.47;29.50;;;8.40;77.30;;;;;;5038637;28;20287;-73
2021/12/11 04:15:42;;;;;;;45.73;30.77;;;8.40;77.40;;;;;;5028951;28;20713;-73
2021/12/11 04:18:10;;;;;;;40.70;33.03;;;8.40;77.40;;;;;;5045340;28;20206;-73
2021/12/11 04:20:42;;;;;;;41.87;37.63;;;8.40;77.40;;;;;;5049145;28;20235;-75
2021/12/11 04:23:12;;;;;;;41.40;32.97;;;8.40;77.40;;;;;;5033597;28;20775;-73
2021/12/11 04:25:41;;;;;;;46.03;37.87;;;8.30;77.30;;;;;;5039373;28;20619;-73
2021/12/11 04:28:09;;;;;;;38.90;31.97;;;8.30;77.30;;;;;;5048732;28;20229;-73
2021/12/11 04:30:42;;;;;;;38.97;32.17;;;8.30;77.40;;;;;;5048239;28;20264;-73
2021/12/11 04:33:09;;;;;;;44.23;33.27;;;8.40;77.50;;;;;;5039405;28;20210;-73
2021/12/11 04:35:36;;;;;;;40.40;31.77;;;8.30;77.50;;;;;;5029056;28;20257;-73
2021/12/11 04:38:08;;;;;;;42.37;34.50;;;8.30;77.50;;;;;;5040166;28;20314;-74
2021/12/11 04:40:38;;;;;;;48.87;40.87;;;8.30;77.60;;;;;;5048548;28;20213;-73
2021/12/11 04:43:11;;;;;;;43.93;32.80;;;8.30;77.60;;;;;;5029593;28;20257;-74
2021/12/11 04:45:44;;;;;;;50.23;37.33;;;8.30;77.60;;;;;;5028837;28;20667;-73
2021/12/11 04:48:18;;;;;;;42.13;31.77;;;8.30;77.70;;;;;;5040042;28;20225;-73
2021/12/11 04:50:52;;;;;;;51.03;33.03;;;8.30;77.70;;;;;;5048447;28;20204;-74
2021/12/11 04:53:35;;;;;;;40.37;31.43;;;8.30;77.70;;;;;;5047338;28;20617;-73
2021/12/11 04:56:24;;;;;;;49.60;34.40;;;8.30;77.70;;;;;;5048467;28;20214;-72
2021/12/11 04:59:11;;;;;;;41.90;34.10;;;8.30;77.70;;;;;;5031535;28;20302;-72
2021/12/11 05:01:51;;;;;;;38.10;31.40;;;8.30;77.80;;;;;;5027912;28;20247;-72
2021/12/11 05:07:06;;;;;;;45.03;30.10;;;8.30;77.70;;;;;;5021981;28;20203;-73
2021/12/11 05:09:39;;;;;;;42.03;33.97;;;8.30;77.70;;;;;;5048410;28;20213;-73
2021/12/11 05:12:16;;;;;;;54.50;32.93;;;8.30;77.70;;;;;;5034959;28;20207;-73
2021/12/11 05:14:45;;;;;;;53.23;31.57;;;8.30;77.70;;;;;;5027905;28;20242;-73
2021/12/11 05:17:14;;;;;;;36.60;30.27;;;8.30;77.60;;;;;;5030367;28;20265;-73
2021/12/11 05:19:42;;;;;;;42.17;30.67;;;8.30;77.60;;;;;;5043774;28;20262;-74
2021/12/11 05:22:09;;;;;;;46.70;34.07;;;8.30;77.60;;;;;;5047512;28;20235;-73
2021/12/11 05:24:39;;;;;;;39.67;34.00;;;8.40;77.70;;;;;;5047841;28;20262;-73
2021/12/11 05:27:06;;;;;;;52.60;39.03;;;8.30;77.50;;;;;;5046222;28;20329;-74
2021/12/11 05:29:34;;;;;;;39.53;32.07;;;8.30;77.50;;;;;;5027571;28;20321;-73
2021/12/11 05:32:03;;;;;;;41.70;28.50;;;8.30;77.50;;;;;;5044865;28;20669;-73
2021/12/11 05:34:31;;;;;;;39.27;35.50;;;8.30;77.50;;;;;;5048131;28;20267;-73
2021/12/11 05:36:59;;;;;;;42.60;29.33;;;8.30;77.40;;;;;;5031770;28;20258;-73
2021/12/11 05:39:26;;;;;;;61.47;36.73;;;8.30;77.30;;;;;;5029671;28;20908;-73
2021/12/11 05:41:53;;;;;;;47.90;29.63;;;8.30;77.30;;;;;;5046250;28;20236;-75
2021/12/11 05:44:21;;;;;;;46.00;31.80;;;8.30;77.20;;;;;;5047539;28;20652;-74
2021/12/11 05:46:50;;;;;;;36.73;31.07;;;8.20;77.10;;;;;;5048204;28;20238;-74
2021/12/11 05:49:17;;;;;;;42.07;31.27;;;8.20;77.00;;;;;;5046531;28;20983;-74
2021/12/11 05:51:48;;;;;;;46.40;33.77;;;8.20;76.90;;;;;;5046586;28;20825;-72
2021/12/11 05:54:20;;;;;;;43.53;30.87;;;8.20;76.90;;;;;;5040228;28;20309;-72
2021/12/11 05:56:47;;;;;;;40.20;29.83;;;8.20;76.80;;;;;;5040434;28;20288;-72
2021/12/11 05:59:18;;;;;;;42.93;34.10;;;8.20;76.90;;;;;;5047664;28;20237;-72
2021/12/11 06:01:48;;;;;;;35.30;31.40;;;8.20;76.70;;;;;;5044771;28;20282;-72
2021/12/11 06:04:18;;;;;;;41.50;30.30;;;8.20;76.70;;;;;;5030673;28;20331;-72
2021/12/11 06:06:47;;;;;;;38.93;34.97;;;8.20;76.90;;;;;;5047524;28;20199;-73
2021/12/11 06:09:21;;;;;;;44.53;33.87;;;8.20;76.90;;;;;;5034164;28;20292;-74
2021/12/11 06:11:52;;;;;;;43.97;31.93;;;8.10;76.70;;;;;;5027767;28;20678;-75
2021/12/11 06:14:21;;;;;;;41.10;29.87;;;8.10;76.80;;;;;;5035646;28;20222;-74
2021/12/11 06:16:51;;;;;;;47.83;31.13;;;8.10;76.90;;;;;;5049480;28;20234;-73
2021/12/11 06:19:21;;;;;;;40.07;32.70;;;8.10;76.90;;;;;;5039979;28;20233;-78
2021/12/11 06:21:50;;;;;;;40.03;30.70;;;8.10;76.90;;;;;;5031961;28;20204;-79
2021/12/11 06:24:18;;;;;;;40.90;33.37;;;8.10;76.90;;;;;;5047237;28;20746;-73
2021/12/11 06:26:45;;;;;;;38.23;31.50;;;8.10;76.90;;;;;;5047672;28;20313;-74
2021/12/11 06:29:12;;;;;;;38.07;32.70;;;8.00;76.80;;;;;;5046747;28;20312;-74
2021/12/11 06:31:39;;;;;;;41.33;35.57;;;8.00;76.80;;;;;;5047323;28;20235;-74
2021/12/11 06:34:06;;;;;;;51.20;32.47;;;8.00;76.80;;;;;;5046101;28;20249;-73
2021/12/11 06:36:33;;;;;;;41.83;37.00;;;8.00;76.80;;;;;;5050256;28;20297;-73
2021/12/11 06:39:05;;;;;;;42.03;30.33;;;8.00;76.70;;;;;;5050404;28;20287;-74
2021/12/11 06:41:38;;;;;;;35.93;32.00;;;7.90;76.50;;;;;;5050216;28;20226;-73
2021/12/11 06:44:06;;;;;;;43.47;33.03;;;7.90;76.40;;;;;;5039268;28;20314;-73
2021/12/11 06:46:33;;;;;;;46.10;34.40;;;7.90;76.40;;;;;;5034010;28;20202;-72
2021/12/11 06:49:00;;;;;;;35.17;30.43;;;7.90;76.30;;;;;;5051265;28;20328;-73
2021/12/11 06:51:28;;;;;;;37.77;33.30;;;7.80;76.30;;;;;;5051853;28;20687;-74
2021/12/11 06:53:58;;;;;;;49.30;34.37;;;7.80;76.20;;;;;;5051122;28;20240;-73
2021/12/11 06:56:29;;;;;;;41.40;32.40;;;7.80;76.20;;;;;;5039932;28;20281;-72
2021/12/11 06:58:57;;;;;;;46.73;32.50;;;7.80;76.20;;;;;;5030564;28;20288;-72
2021/12/11 07:01:27;;;;;;;41.63;33.30;;;7.70;76.00;;;;;;5044531;28;20701;-72
2021/12/11 07:03:57;;;;;;;39.03;34.73;;;7.70;76.00;;;;;;5050570;28;20259;-74
2021/12/11 07:06:25;;;;;;;39.93;35.73;;;7.70;76.10;;;;;;5049037;28;20443;-79
2021/12/11 07:08:53;;;;;;;45.63;32.17;;;7.60;76.20;;;;;;5041088;28;20317;-77
2021/12/11 07:11:23;;;;;;;49.97;38.40;;;7.60;76.40;;;;;;5046959;28;20206;-78
2021/12/11 07:13:52;;;;;;;47.17;42.87;;;7.60;76.50;;;;;;5050767;28;20225;-74
2021/12/11 07:16:19;;;;;;;49.17;44.30;;;7.60;76.60;;;;;;5041842;28;20630;-73
2021/12/11 07:18:46;;;;;;;49.23;41.87;;;7.50;76.70;;;;;;5032724;28;20545;-86
2021/12/11 07:21:14;;;;;;;47.50;42.47;;;7.50;76.80;;;;;;5031956;28;20285;-78
2021/12/11 07:23:47;;;;;;;44.00;40.13;;;7.50;76.80;;;;;;5036298;28;20291;-72
2021/12/11 07:26:18;;;;;;;68.80;43.90;;;7.50;76.90;;;;;;5043603;28;20277;-77
2021/12/11 07:28:49;;;;;;;45.20;38.90;;;7.40;76.80;;;;;;5040704;28;20236;-79
2021/12/11 07:31:19;;;;;;;48.20;42.80;;;7.50;76.90;;;;;;5049444;28;20210;-78
2021/12/11 07:33:46;;;;;;;42.60;36.90;;;7.40;76.90;;;;;;5049533;28;20275;-73
2021/12/11 07:36:14;;;;;;;52.63;35.17;;;7.40;77.00;;;;;;5047939;28;20681;-74
2021/12/11 07:38:41;;;;;;;61.97;40.50;;;7.40;77.10;;;;;;5044855;28;20209;-74
2021/12/11 07:41:11;;;;;;;40.43;36.13;;;7.40;77.20;;;;;;5049062;28;20280;-72
2021/12/11 07:43:41;;;;;;;48.10;43.60;;;7.40;77.20;;;;;;5049059;28;20308;-73
2021/12/11 07:46:13;;;;;;;41.37;37.07;;;7.30;77.10;;;;;;5035405;28;20286;-74
2021/12/11 07:48:42;;;;;;;40.67;37.17;;;7.40;77.20;;;;;;5029972;28;20225;-73
2021/12/11 07:51:09;;;;;;;49.70;36.67;;;7.40;77.20;;;;;;5029580;28;20216;-74
2021/12/11 07:53:37;;;;;;;50.00;44.53;;;7.30;77.10;;;;;;5034636;28;20228;-75
2021/12/11 07:56:04;;;;;;;41.63;33.97;;;7.40;77.20;;;;;;5034556;28;20816;-72
2021/12/11 07:58:33;;;;;;;41.70;37.07;;;7.30;77.10;;;;;;5029796;28;20206;-77
2021/12/11 08:01:02;;;;;;;45.10;40.87;;;7.30;77.10;;;;;;5029365;28;20205;-76
2021/12/11 08:03:29;;;;;;;53.37;44.33;;;7.30;77.00;;;;;;5030529;28;20259;-72
2021/12/11 08:05:57;;;;;;;53.57;40.03;;;7.30;77.00;;;;;;5028514;28;20296;-76
2021/12/11 08:08:26;;;;;;;53.43;43.03;;;7.30;77.00;;;;;;5030971;28;20706;-75
2021/12/11 08:10:59;;;;;;;48.47;41.60;;;7.30;76.90;;;;;;5045637;28;20273;-77
2021/12/11 08:13:27;;;;;;;45.60;40.57;;;7.30;76.90;;;;;;5029744;28;20306;-72
2021/12/11 08:15:56;;;;;;;90.87;48.17;;;7.30;76.90;;;;;;5029351;28;20659;-76
2021/12/11 08:18:24;;;;;;;50.43;41.43;;;7.20;76.80;;;;;;5035914;28;20204;-79
2021/12/11 08:20:51;;;;;;;94.07;46.57;;;7.30;76.90;;;;;;5048127;28;20208;-71
2021/12/11 08:23:20;;;;;;;45.37;41.10;;;7.20;76.80;;;;;;5048675;28;20307;-72
2021/12/11 08:25:48;;;;;;;53.00;39.70;;;7.20;76.70;;;;;;5049090;28;20200;-71
2021/12/11 08:28:19;;;;;;;46.53;35.47;;;7.20;76.80;;;;;;5048814;28;20239;-72
2021/12/11 08:30:50;;;;;;;45.60;39.87;;;7.20;76.80;;;;;;5048614;28;20204;-72
2021/12/11 08:33:17;;;;;;;46.73;41.43;;;7.20;77.00;;;;;;5042245;28;20197;-71
2021/12/11 08:35:44;;;;;;;50.50;46.17;;;7.10;76.90;;;;;;5047873;28;20208;-72
2021/12/11 08:38:12;;;;;;;42.73;38.20;;;7.10;77.00;;;;;;5048266;28;20287;-76
2021/12/11 08:40:44;;;;;;;49.83;43.33;;;7.10;77.10;;;;;;5035675;28;20281;-71
2021/12/11 08:43:13;;;;;;;46.97;41.87;;;7.10;77.20;;;;;;5028461;28;20720;-71
2021/12/11 08:45:46;;;;;;;47.50;42.37;;;7.10;77.20;;;;;;5047700;28;20624;-71
2021/12/11 08:48:16;;;;;;;49.20;42.73;;;7.10;77.50;;;;;;5037852;28;20196;-74
2021/12/11 08:50:46;;;;;;;60.33;40.73;;;7.10;77.70;;;;;;5028626;28;20219;-71
2021/12/11 08:53:13;;;;;;;48.67;44.17;;;7.10;77.90;;;;;;5028845;28;20297;-71
2021/12/11 08:55:47;;;;;;;56.10;41.93;;;7.10;78.00;;;;;;5028506;28;20292;-72
2021/12/11 08:58:17;;;;;;;49.67;39.77;;;7.10;78.10;;;;;;5028230;28;20290;-72
2021/12/11 09:00:49;;;;;;;47.30;42.73;;;7.10;78.30;;;;;;5029109;28;20287;-71
2021/12/11 09:03:28;;;;;;;43.50;39.30;;;7.10;78.60;;;;;;5028835;28;20236;-73
2021/12/11 09:06:00;;;;;;;58.00;40.70;;;7.10;78.80;;;;;;5039787;28;20791;-72
2021/12/11 09:08:31;;;;;;;44.23;39.60;;;7.20;79.00;;;;;;5031830;28;20295;-75
2021/12/11 09:11:03;;;;;;;55.30;49.43;;;7.20;79.20;;;;;;5028420;28;20205;-76
2021/12/11 09:13:38;;;;;;;44.47;40.00;;;7.20;79.50;;;;;;5041221;28;20299;-74
2021/12/11 09:16:12;;;;;;;69.07;43.87;;;7.30;79.60;;;;;;5051884;28;20207;-72
2021/12/11 09:18:45;;;;;;;44.50;39.60;;;7.30;79.70;;;;;;5040571;28;20259;-75
2021/12/11 09:21:15;;;;;;;45.93;38.77;;;7.40;79.80;;;;;;5036912;28;20212;-71
2021/12/11 09:23:45;;;;;;;42.27;37.83;;;7.40;79.80;;;;;;5036293;28;20708;-73
2021/12/11 09:26:20;;;;;;;45.50;40.80;;;7.50;79.90;;;;;;5036832;28;20281;-75
2021/12/11 09:28:51;;;;;;;50.33;37.50;;;7.50;79.90;;;;;;5036835;28;20194;-76
2021/12/11 09:31:22;;;;;;;44.83;33.77;;;7.60;79.90;;;;;;5036028;28;20199;-74
2021/12/11 09:33:53;;;;;;;44.30;36.37;;;7.70;79.90;;;;;;5036118;28;20300;-73
2021/12/11 09:36:24;;;;;;;51.33;33.10;;;7.70;79.80;;;;;;5035966;28;20226;-75
2021/12/11 09:38:58;;;;;;;44.57;37.63;;;7.70;80.40;;;;;;5036138;28;20700;-74
2021/12/11 09:41:25;;;;;;;48.70;37.33;;;7.80;79.70;;;;;;5036630;28;20193;-77
2021/12/11 09:43:56;;;;;;;52.57;33.43;;;7.90;79.70;;;;;;5036324;28;20333;-73
2021/12/11 09:46:27;;;;;;;53.10;35.17;;;7.90;79.60;;;;;;5036064;28;20277;-74
2021/12/11 09:48:55;;;;;;;40.23;33.40;;;8.00;79.60;;;;;;5036254;28;20319;-72
2021/12/11 09:51:28;;;;;;;55.47;35.00;;;8.00;79.50;;;;;;5035824;28;20199;-72
2021/12/11 09:54:00;;;;;;;47.60;30.97;;;8.10;79.50;;;;;;5036220;28;20244;-72
2021/12/11 09:56:33;;;;;;;42.90;34.50;;;8.10;79.40;;;;;;5036229;28;20196;-72
2021/12/11 09:59:06;;;;;;;37.27;31.27;;;8.20;79.30;;;;;;5035628;28;20238;-74
2021/12/11 10:01:38;;;;;;;55.50;32.23;;;8.20;79.20;;;;;;5036596;28;20631;-75
2021/12/11 10:04:09;;;;;;;38.73;34.60;;;8.20;79.10;;;;;;5043924;28;20241;-71
2021/12/11 10:06:44;;;;;;;39.57;33.03;;;8.30;79.20;;;;;;5037962;28;20344;-76
2021/12/11 10:09:18;;;;;;;44.30;35.03;;;8.30;79.20;;;;;;5038533;28;20598;-72
2021/12/11 10:11:49;;;;;;;46.23;35.83;;;8.40;79.30;;;;;;5040070;28;20286;-77
2021/12/11 10:14:21;;;;;;;47.63;35.40;;;8.50;79.40;;;;;;5039698;28;20634;-72
2021/12/11 10:16:52;;;;;;;61.23;35.20;;;8.50;79.30;;;;;;5038881;28;20299;-73
2021/12/11 10:19:21;;;;;;;36.93;33.00;;;8.60;79.20;;;;;;5031362;28;20322;-74
2021/12/11 10:21:51;;;;;;;39.00;30.13;;;8.60;79.10;;;;;;5031482;28;20205;-73
2021/12/11 10:24:21;;;;;;;46.80;31.37;;;8.60;78.90;;;;;;5031717;28;20270;-76
2021/12/11 10:26:50;;;;;;;42.13;32.27;;;8.70;78.80;;;;;;5031948;28;20236;-71
2021/12/11 10:29:19;;;;;;;37.10;27.97;;;8.70;78.70;;;;;;5031513;28;20710;-74
2021/12/11 10:31:49;;;;;;;51.13;31.60;;;8.80;78.70;;;;;;5033676;28;20871;-71
2021/12/11 10:34:20;;;;;;;45.17;28.80;;;8.80;78.80;;;;;;5035087;28;20260;-73
2021/12/11 10:36:51;;;;;;;40.47;27.37;;;8.80;78.70;;;;;;5031679;28;20766;-72
2021/12/11 10:39:19;;;;;;;42.03;29.73;;;8.90;78.80;;;;;;5031535;28;20207;-72
2021/12/11 10:41:47;;;;;;;48.17;29.20;;;8.90;78.70;;;;;;5041003;28;20300;-73
2021/12/11 10:44:16;;;;;;;35.53;28.73;;;9.00;78.70;;;;;;5051380;28;20262;-75
2021/12/11 10:46:48;;;;;;;59.73;28.90;;;9.00;78.60;;;;;;5049723;28;20307;-72
2021/12/11 10:49:16;;;;;;;41.20;32.37;;;9.10;78.40;;;;;;5050809;28;20228;-73
2021/12/11 10:51:46;;;;;;;44.27;35.63;;;9.10;78.40;;;;;;5051292;28;20229;-72
2021/12/11 10:54:16;;;;;;;39.17;26.53;;;9.20;78.20;;;;;;5051011;28;20887;-73
2021/12/11 10:56:45;;;;;;;39.00;27.07;;;9.20;78.30;;;;;;5050879;28;20719;-72
2021/12/11 10:59:17;;;;;;;39.13;31.20;;;9.20;78.30;;;;;;5051132;28;20293;-73
2021/12/11 11:01:48;;;;;;;61.03;28.17;;;9.30;78.30;;;;;;5046957;28;20308;-72
2021/12/11 11:04:20;;;;;;;42.83;29.73;;;9.40;77.90;;;;;;5042147;28;20322;-73
2021/12/11 11:06:47;;;;;;;46.90;32.50;;;9.40;77.80;;;;;;5050662;28;20687;-73
2021/12/11 11:09:17;;;;;;;44.70;26.77;;;9.40;77.70;;;;;;5046006;28;20224;-72
2021/12/11 11:11:45;;;;;;;40.70;27.27;;;9.50;77.70;;;;;;5050643;28;20330;-75
2021/12/11 11:14:14;;;;;;;40.70;28.17;;;9.50;77.70;;;;;;5050188;28;20224;-74
2021/12/11 11:16:51;;;;;;;51.37;25.10;;;9.50;77.80;;;;;;5050683;28;20233;-73
2021/12/11 11:19:20;;;;;;;53.17;24.93;;;9.60;78.30;;;;;;5050641;28;20209;-70
2021/12/11 11:21:50;;;;;;;42.90;23.10;;;9.70;79.10;;;;;;5049321;28;20228;-72
2021/12/11 11:24:18;;;;;;;44.07;19.03;;;9.80;79.20;;;;;;5050007;28;20316;-71
2021/12/11 11:26:48;;;;;;;43.03;21.83;;;9.90;79.00;;;;;;5049989;28;20246;-71
2021/12/11 11:29:21;;;;;;;54.40;23.80;;;10.00;77.20;;;;;;5049613;28;20683;-72
2021/12/11 11:31:50;;;;;;;94.73;22.43;;;10.20;77.30;;;;;;5048022;28;20710;-73
2021/12/11 11:34:23;;;;;;;48.13;19.67;;;10.30;77.60;;;;;;5031531;28;20307;-71
2021/12/11 11:36:51;;;;;;;38.30;17.33;;;10.40;77.50;;;;;;5030274;28;20660;-71
2021/12/11 11:39:20;;;;;;;38.97;19.50;;;10.60;77.20;;;;;;5031846;28;20228;-76
2021/12/11 11:41:50;;;;;;;31.70;16.33;;;10.70;76.60;;;;;;5049566;28;20243;-72
2021/12/11 11:44:19;;;;;;;33.60;16.63;;;10.80;76.70;;;;;;5049854;28;20319;-73
2021/12/11 11:46:47;;;;;;;40.40;19.37;;;11.00;76.90;;;;;;5049859;28;20204;-72
2021/12/11 11:49:16;;;;;;;42.97;16.90;;;11.10;76.50;;;;;;5050011;28;20243;-75
2021/12/11 11:51:46;;;;;;;37.30;16.93;;;11.20;76.20;;;;;;5050176;28;20240;-76
2021/12/11 11:54:17;;;;;;;50.27;17.23;;;11.30;75.80;;;;;;5049409;28;20284;-70
2021/12/11 11:56:49;;;;;;;28.93;17.17;;;11.40;75.70;;;;;;5049636;28;20752;-71
2021/12/11 11:59:16;;;;;;;28.60;14.63;;;11.40;74.70;;;;;;5050139;28;20239;-73
2021/12/11 12:01:46;;;;;;;50.30;18.10;;;11.50;74.30;;;;;;5048980;28;20201;-72
2021/12/11 12:04:17;;;;;;;40.37;16.07;;;11.60;74.50;;;;;;5045231;28;20308;-72
2021/12/11 12:06:48;;;;;;;40.33;18.13;;;11.60;74.10;;;;;;5049194;28;20204;-76
2021/12/11 12:09:17;;;;;;;40.70;17.03;;;11.70;74.30;;;;;;5049241;28;20209;-76
2021/12/11 12:11:44;;;;;;;27.07;17.27;;;11.70;72.70;;;;;;5049555;28;20870;-75
2021/12/11 12:14:14;;;;;;;44.87;17.17;;;11.70;73.10;;;;;;5049766;28;20282;-72
2021/12/11 12:16:43;;;;;;;32.17;17.73;;;11.70;73.10;;;;;;5049072;28;20239;-72
2021/12/11 12:19:11;;;;;;;29.67;14.20;;;11.70;73.00;;;;;;5049492;28;20200;-71
2021/12/11 12:21:41;;;;;;;34.90;16.57;;;11.70;72.60;;;;;;5044465;28;20290;-71
2021/12/11 12:24:10;;;;;;;34.47;16.17;;;11.70;72.30;;;;;;5030509;28;20256;-72
2021/12/11 12:26:37;;;;;;;44.00;18.40;;;11.70;72.30;;;;;;5029673;28;20291;-71
2021/12/11 12:29:08;;;;;;;41.97;17.57;;;11.60;72.00;;;;;;5029146;28;20240;-71
2021/12/11 12:31:41;;;;;;;37.57;17.50;;;11.50;72.20;;;;;;5028405;28;20646;-71
2021/12/11 12:34:11;;;;;;;33.90;16.83;;;11.60;72.10;;;;;;5028107;28;20256;-73
2021/12/11 12:36:39;;;;;;;38.73;17.37;;;11.60;72.10;;;;;;5028963;28;20301;-71
2021/12/11 12:39:09;;;;;;;35.40;16.90;;;11.50;72.30;;;;;;5040505;28;20311;-72
2021/12/11 12:41:39;;;;;;;37.67;19.00;;;11.50;72.30;;;;;;5045337;28;20233;-72
2021/12/11 12:44:18;;;;;;;30.67;17.30;;;11.40;72.70;;;;;;5049056;28;20224;-71
2021/12/11 12:46:50;;;;;;;48.53;20.27;;;11.40;72.50;;;;;;5048604;28;20204;-72
2021/12/11 12:49:17;;;;;;;32.23;15.37;;;11.40;73.00;;;;;;5048521;28;20628;-76
2021/12/11 12:51:45;;;;;;;32.30;18.67;;;11.30;73.10;;;;;;5048424;28;20283;-72
2021/12/11 12:54:16;;;;;;;38.23;19.13;;;11.30;73.10;;;;;;5048583;28;20310;-73